Bhaktapur, Nepal
Current Conditions -  °F | °C
As of 10:50 AM on Wednesday 22 Oct 2014 (Local Time) from VNKT Reporting Station
Few Clouds Few Clouds  
Wind Chill: 73°   Ceiling: Unl
Heat Index: 73°   Visibility: 6mi
Dew Point: 54°   Wind: 0mph
Humidity: 50%   Direction: NA
Pressure: 30.24"   Gusts: NA
Location:  27.67°N, 85.43°E
Report Text: VNKT 220550Z 00000KT 9000 FEW025 23/12 Q1024 NOSIG
Loading
Personal Weather Stations






























Interactive Weather Map
Tropical Storm Tracking
New forecast layout! Learn more

10-Day Weather Forecast

Advertisements
Track Severe Weather on mobile